createdAt,value
2022-09-07T00:01:43.288Z,11.20
2022-09-07T00:04:47.768Z,11.30
2022-09-07T00:07:52.451Z,11.20
2022-09-07T00:11:06.882Z,11.20
2022-09-07T00:14:11.215Z,11.20
2022-09-07T00:17:15.763Z,11.20
2022-09-07T00:20:20.334Z,11.20
2022-09-07T00:23:24.981Z,11.20
2022-09-07T00:26:31.465Z,11.10
2022-09-07T00:29:35.865Z,11.10
2022-09-07T00:32:40.186Z,11.20
2022-09-07T00:35:44.857Z,11.20
2022-09-07T00:38:50.018Z,11.20
2022-09-07T00:41:54.549Z,11.20
2022-09-07T00:45:14.653Z,11.20
2022-09-07T00:48:20.683Z,11.20
2022-09-07T00:51:38.605Z,11.20
2022-09-07T00:54:49.352Z,11.10
2022-09-07T00:57:55.919Z,11.20
2022-09-07T01:01:00.497Z,11.20
2022-09-07T01:04:05.475Z,11.20
2022-09-07T01:07:10.173Z,11.20
2022-09-07T01:10:14.481Z,11.20
2022-09-07T01:13:18.854Z,11.10
2022-09-07T01:16:45.171Z,11.20
2022-09-07T01:20:15.314Z,11.20
2022-09-07T01:23:47.837Z,11.30
2022-09-07T01:27:04.230Z,11.30
2022-09-07T01:30:13.079Z,11.30
2022-09-07T01:33:25.515Z,11.30
2022-09-07T01:37:07.193Z,11.30
2022-09-07T01:40:40.163Z,11.30
2022-09-07T01:43:58.698Z,11.40
2022-09-07T01:47:09.056Z,11.40
2022-09-07T01:51:00.810Z,11.30
2022-09-07T01:54:18.674Z,11.30
2022-09-07T01:57:39.299Z,11.40
2022-09-07T02:00:50.893Z,11.30
2022-09-07T02:03:58.406Z,11.40
2022-09-07T02:07:10.455Z,11.40
2022-09-07T02:10:26.996Z,11.40
2022-09-07T02:13:37.117Z,11.30
2022-09-07T02:17:07.915Z,11.40
2022-09-07T02:20:19.276Z,11.30
2022-09-07T02:23:32.963Z,11.30
2022-09-07T02:26:40.431Z,11.30
2022-09-07T02:29:45.427Z,11.40
2022-09-07T02:32:49.879Z,11.50
2022-09-07T02:35:54.605Z,11.50
2022-09-07T02:38:59.475Z,11.40
2022-09-07T02:42:04.849Z,11.40
2022-09-07T02:45:12.193Z,11.50
2022-09-07T02:48:37.181Z,11.50
2022-09-07T02:51:47.595Z,11.50
2022-09-07T02:54:58.219Z,11.50
2022-09-07T02:58:57.181Z,11.50
2022-09-07T03:02:05.668Z,11.60
2022-09-07T03:05:10.101Z,11.60
2022-09-07T03:08:25.211Z,11.60
2022-09-07T03:11:29.911Z,11.60
2022-09-07T03:14:36.200Z,11.60
2022-09-07T03:17:42.150Z,11.60
2022-09-07T03:20:47.114Z,11.60
2022-09-07T03:23:52.010Z,11.60
2022-09-07T03:26:57.313Z,11.60
2022-09-07T03:30:02.030Z,11.60
2022-09-07T03:33:06.478Z,11.70
2022-09-07T03:36:11.242Z,11.70
2022-09-07T03:39:15.957Z,11.70
2022-09-07T03:42:20.796Z,11.70
2022-09-07T03:45:24.934Z,11.70
2022-09-07T03:48:34.486Z,11.70
2022-09-07T03:51:39.506Z,11.70
2022-09-07T03:54:44.238Z,11.70
2022-09-07T03:57:48.606Z,11.70
2022-09-07T04:00:52.927Z,11.70
2022-09-07T04:04:02.250Z,11.70
2022-09-07T04:07:07.250Z,11.70
2022-09-07T04:10:11.762Z,11.70
2022-09-07T04:13:16.433Z,11.70
2022-09-07T04:16:26.421Z,11.70
2022-09-07T04:19:31.127Z,11.70
2022-09-07T04:22:35.602Z,11.70
2022-09-07T04:25:50.853Z,11.70
2022-09-07T04:28:55.466Z,11.70
2022-09-07T04:32:00.122Z,11.70
2022-09-07T04:35:05.152Z,11.70
2022-09-07T04:38:14.308Z,11.70
2022-09-07T04:41:19.356Z,11.70
2022-09-07T04:44:24.006Z,11.70
2022-09-07T04:47:30.704Z,11.70
2022-09-07T04:50:35.477Z,11.80
2022-09-07T04:53:39.992Z,11.80
2022-09-07T04:56:44.575Z,11.80
2022-09-07T04:59:49.056Z,11.80
2022-09-07T05:02:53.403Z,11.90
2022-09-07T05:06:00.546Z,12.00
2022-09-07T05:09:05.335Z,12.00
2022-09-07T05:12:09.727Z,12.10
2022-09-07T05:15:14.314Z,12.10
2022-09-07T05:18:18.863Z,12.20
2022-09-07T05:21:26.108Z,12.30
2022-09-07T05:24:30.926Z,12.50
2022-09-07T05:27:35.402Z,12.80
2022-09-07T05:37:30.256Z,13.50
2022-09-07T05:40:39.894Z,13.70
2022-09-07T05:47:10.739Z,14.10
2022-09-07T05:50:16.126Z,14.30
2022-09-07T05:53:21.411Z,14.50
2022-09-07T05:56:25.969Z,14.60
2022-09-07T05:59:30.472Z,14.80
2022-09-07T06:02:39.489Z,14.90
2022-09-07T06:05:44.616Z,15.10
2022-09-07T06:08:52.394Z,15.30
2022-09-07T06:11:57.003Z,15.30
2022-09-07T06:15:01.642Z,15.50
2022-09-07T06:18:06.418Z,15.80
2022-09-07T06:21:16.879Z,16.00
2022-09-07T06:24:21.595Z,16.40
2022-09-07T06:27:26.154Z,16.40
2022-09-07T06:30:30.677Z,16.50
2022-09-07T06:33:36.354Z,16.60
2022-09-07T06:36:41.046Z,16.70
2022-09-07T06:39:45.810Z,16.70
2022-09-07T06:42:50.106Z,17.00
2022-09-07T06:45:54.883Z,16.90
2022-09-07T06:48:59.632Z,17.10
2022-09-07T06:52:04.379Z,17.20
2022-09-07T06:55:08.861Z,17.60
2022-09-07T06:58:13.612Z,17.90
2022-09-07T07:01:22.116Z,17.90
2022-09-07T07:04:26.891Z,18.20
2022-09-07T07:07:31.279Z,18.20
2022-09-07T07:10:39.214Z,17.90
2022-09-07T07:13:45.228Z,18.50
2022-09-07T07:16:49.894Z,18.50
2022-09-07T07:19:54.540Z,18.30
2022-09-07T07:22:59.257Z,18.70
2022-09-07T07:26:04.499Z,18.20
2022-09-07T07:29:09.227Z,18.50
2022-09-07T07:32:13.750Z,18.50
2022-09-07T07:35:18.257Z,19.20
2022-09-07T07:41:56.440Z,18.40
2022-09-07T07:48:28.606Z,18.80
2022-09-07T07:52:49.930Z,18.80
2022-09-07T07:54:58.069Z,19.10
2022-09-07T07:58:02.159Z,18.90
2022-09-07T08:01:10.197Z,19.00
2022-09-07T08:04:14.693Z,18.90
2022-09-07T08:07:19.794Z,18.50
2022-09-07T08:10:27.009Z,18.70
2022-09-07T08:13:33.775Z,19.20
2022-09-07T08:16:38.239Z,18.90
2022-09-07T08:19:43.251Z,18.80
2022-09-07T08:22:50.820Z,19.40
2022-09-07T08:25:58.304Z,19.60
2022-09-07T08:29:02.580Z,19.70
2022-09-07T08:32:07.122Z,19.50
2022-09-07T08:35:11.385Z,19.40
2022-09-07T08:38:20.515Z,19.80
2022-09-07T08:41:55.121Z,19.50
2022-09-07T08:45:16.966Z,19.70
2022-09-07T08:48:31.011Z,19.60
2022-09-07T08:51:59.584Z,19.70
2022-09-07T08:55:14.386Z,19.50
2022-09-07T08:58:50.208Z,19.70
2022-09-07T09:05:29.874Z,19.80
2022-09-07T09:08:56.230Z,19.70
2022-09-07T09:12:12.675Z,19.90
2022-09-07T09:15:47.043Z,19.80
2022-09-07T09:18:51.724Z,19.80
2022-09-07T09:22:14.562Z,20.20
2022-09-07T09:25:20.706Z,20.20
2022-09-07T09:28:27.631Z,20.20
2022-09-07T09:31:36.138Z,20.30
2022-09-07T09:34:40.783Z,20.90
2022-09-07T09:37:45.566Z,21.40
2022-09-07T09:40:53.063Z,21.20
2022-09-07T09:43:58.195Z,21.30
2022-09-07T09:54:07.350Z,22.00
2022-09-07T09:57:38.647Z,21.20
2022-09-07T10:04:34.796Z,21.40
2022-09-07T10:07:39.243Z,21.80
2022-09-07T10:10:57.617Z,21.40
2022-09-07T10:14:01.812Z,20.90
2022-09-07T10:17:47.661Z,20.70
2022-09-07T10:20:51.962Z,20.60
2022-09-07T10:24:04.930Z,20.50
2022-09-07T10:27:30.389Z,20.70
2022-09-07T10:30:59.764Z,21.00
2022-09-07T10:34:28.189Z,21.20
2022-09-07T10:37:50.861Z,21.70
2022-09-07T10:41:09.523Z,22.30
2022-09-07T10:44:36.652Z,22.50
2022-09-07T10:48:08.752Z,23.20
2022-09-07T10:51:18.091Z,23.20
2022-09-07T10:54:31.311Z,22.90
2022-09-07T10:57:48.896Z,23.20
2022-09-07T11:01:16.716Z,22.70
2022-09-07T11:04:54.784Z,22.40
2022-09-07T11:08:14.152Z,23.10
2022-09-07T11:12:01.068Z,23.30
2022-09-07T11:15:41.158Z,24.00
2022-09-07T11:22:44.949Z,22.80
2022-09-07T11:25:58.978Z,23.20
2022-09-07T11:32:41.858Z,23.20
2022-09-07T11:35:54.394Z,24.10
2022-09-07T11:39:04.939Z,23.50
2022-09-07T11:45:54.511Z,23.30
2022-09-07T11:48:59.367Z,22.40
2022-09-07T11:52:14.947Z,21.80
2022-09-07T11:55:27.395Z,22.00
2022-09-07T11:58:53.539Z,22.70
2022-09-07T12:02:12.743Z,22.60
2022-09-07T12:05:22.660Z,22.70
2022-09-07T12:08:26.918Z,22.90
2022-09-07T12:11:58.639Z,23.20
2022-09-07T12:15:40.462Z,23.20
2022-09-07T12:19:11.458Z,23.00
2022-09-07T12:22:21.214Z,22.80
2022-09-07T12:25:26.034Z,23.30
2022-09-07T12:28:36.518Z,22.60
2022-09-07T12:31:57.696Z,23.50
2022-09-07T12:35:03.179Z,22.60
2022-09-07T12:38:13.994Z,22.50
2022-09-07T12:41:39.813Z,22.40
2022-09-07T12:44:44.225Z,22.80
2022-09-07T12:47:58.164Z,22.40
2022-09-07T12:51:10.904Z,22.80
2022-09-07T12:54:29.966Z,23.00
2022-09-07T12:57:50.656Z,22.60
2022-09-07T13:01:18.621Z,22.80
2022-09-07T13:04:32.408Z,23.00
2022-09-07T13:08:18.664Z,23.00
2022-09-07T13:11:36.106Z,23.40
2022-09-07T13:14:42.818Z,24.10
2022-09-07T13:17:56.374Z,24.10
2022-09-07T13:21:09.791Z,24.00
2022-09-07T13:28:03.862Z,23.10
2022-09-07T13:31:28.898Z,22.60
2022-09-07T13:34:33.649Z,22.30
2022-09-07T13:37:57.827Z,23.00
2022-09-07T13:41:15.487Z,22.50
2022-09-07T13:44:27.194Z,22.80
2022-09-07T13:48:13.764Z,23.00
2022-09-07T13:51:27.338Z,22.20
2022-09-07T13:54:53.223Z,22.20
2022-09-07T13:58:23.111Z,22.90
2022-09-07T14:01:28.905Z,22.60
2022-09-07T14:04:48.279Z,22.60
2022-09-07T14:07:52.608Z,22.20
2022-09-07T14:10:56.638Z,22.30
2022-09-07T14:14:13.152Z,21.90
2022-09-07T14:17:19.563Z,21.60
2022-09-07T14:20:24.660Z,21.50
2022-09-07T14:23:32.703Z,21.20
2022-09-07T14:26:45.128Z,21.00
2022-09-07T14:29:50.570Z,20.90
2022-09-07T14:33:02.694Z,20.70
2022-09-07T14:36:29.481Z,20.60
2022-09-07T14:39:34.734Z,20.60
2022-09-07T14:42:42.596Z,20.50
2022-09-07T14:45:47.165Z,20.40
2022-09-07T14:48:56.995Z,20.30
2022-09-07T14:52:01.892Z,20.00
2022-09-07T14:55:26.412Z,19.90
2022-09-07T14:58:32.318Z,19.90
2022-09-07T15:01:37.883Z,19.70
2022-09-07T15:04:42.843Z,19.60
2022-09-07T15:07:50.303Z,19.40
2022-09-07T15:14:28.269Z,19.50
2022-09-07T15:17:48.490Z,19.40
2022-09-07T15:20:53.060Z,19.30
2022-09-07T15:23:58.775Z,19.20
2022-09-07T15:27:21.497Z,19.10
2022-09-07T15:30:27.356Z,18.90
2022-09-07T15:33:32.007Z,18.90
2022-09-07T15:36:42.617Z,18.90
2022-09-07T15:39:46.733Z,18.70
2022-09-07T15:43:19.593Z,18.70
2022-09-07T15:46:15.158Z,18.50
2022-09-07T15:49:19.461Z,18.50
2022-09-07T15:52:23.706Z,18.40
2022-09-07T15:55:27.894Z,18.40
2022-09-07T15:58:32.917Z,18.30
2022-09-07T16:01:54.684Z,18.30
2022-09-07T16:04:59.489Z,18.30
2022-09-07T16:11:28.210Z,18.00
2022-09-07T16:14:35.095Z,18.00
2022-09-07T16:17:47.298Z,18.00
2022-09-07T16:20:53.329Z,17.80
2022-09-07T16:23:57.887Z,17.90
2022-09-07T16:27:02.979Z,17.80
2022-09-07T16:30:08.434Z,17.70
2022-09-07T16:33:12.817Z,17.70
2022-09-07T16:36:17.598Z,17.60
2022-09-07T16:39:23.197Z,17.50
2022-09-07T16:42:27.354Z,17.40
2022-09-07T16:48:56.274Z,17.40
2022-09-07T16:52:00.338Z,17.40
2022-09-07T16:55:05.198Z,17.30
2022-09-07T17:01:36.071Z,17.20
2022-09-07T17:04:40.580Z,17.20
2022-09-07T17:07:44.667Z,17.10
2022-09-07T17:10:49.011Z,17.10
2022-09-07T17:13:55.656Z,17.00
2022-09-07T17:17:00.135Z,17.00
2022-09-07T17:20:04.603Z,17.00
2022-09-07T17:23:08.947Z,16.90
2022-09-07T17:26:14.523Z,16.90
2022-09-07T17:29:19.173Z,16.90
2022-09-07T17:32:26.197Z,16.80
2022-09-07T17:35:37.306Z,16.80
2022-09-07T17:42:06.440Z,16.70
2022-09-07T17:45:11.616Z,16.70
2022-09-07T17:48:15.891Z,16.60
2022-09-07T17:51:21.644Z,16.60
2022-09-07T17:54:26.016Z,16.60
2022-09-07T17:57:32.552Z,16.60
2022-09-07T18:00:36.906Z,16.50
2022-09-07T18:03:41.599Z,16.50
2022-09-07T18:06:46.154Z,16.50
2022-09-07T18:09:50.543Z,16.50
2022-09-07T18:12:54.891Z,16.40
2022-09-07T18:15:59.932Z,16.40
2022-09-07T18:19:07.424Z,16.40
2022-09-07T18:22:11.910Z,16.40
2022-09-07T18:25:16.779Z,16.40
2022-09-07T18:31:46.070Z,16.30
2022-09-07T18:34:50.987Z,16.20
2022-09-07T18:37:55.789Z,16.20
2022-09-07T18:41:05.702Z,16.20
2022-09-07T18:47:35.211Z,16.20
2022-09-07T18:50:39.455Z,16.20
2022-09-07T18:53:43.803Z,16.10
2022-09-07T18:56:47.984Z,16.10
2022-09-07T18:59:53.510Z,16.10
2022-09-07T19:02:58.296Z,16.10
2022-09-07T19:06:15.852Z,16.10
2022-09-07T19:09:20.096Z,16.10
2022-09-07T19:12:24.999Z,16.00
2022-09-07T19:15:30.979Z,16.00
2022-09-07T19:18:37.610Z,16.00
2022-09-07T19:21:42.887Z,16.00
2022-09-07T19:24:47.166Z,15.90
2022-09-07T19:27:51.262Z,15.90
2022-09-07T19:30:55.954Z,15.90
2022-09-07T19:34:01.439Z,15.90
2022-09-07T19:37:07.686Z,15.90
2022-09-07T19:40:15.857Z,15.80
2022-09-07T19:43:23.292Z,15.90
2022-09-07T19:46:27.961Z,15.80
2022-09-07T19:49:32.392Z,15.80
2022-09-07T19:52:36.585Z,15.80
2022-09-07T19:55:42.678Z,15.80
2022-09-07T19:58:48.461Z,15.70
2022-09-07T20:01:53.811Z,15.70
2022-09-07T20:04:59.009Z,15.70
2022-09-07T20:08:03.654Z,15.70
2022-09-07T20:11:09.097Z,15.70
2022-09-07T20:14:13.500Z,15.70
2022-09-07T20:17:18.019Z,15.70
2022-09-07T20:20:22.899Z,15.70
2022-09-07T20:23:27.301Z,15.70
2022-09-07T20:26:32.490Z,15.60
2022-09-07T20:29:37.403Z,15.60
2022-09-07T20:32:41.459Z,15.60
2022-09-07T20:35:47.689Z,15.50
2022-09-07T20:38:54.690Z,15.30
2022-09-07T20:41:59.182Z,15.20
2022-09-07T20:45:04.233Z,15.10
2022-09-07T20:48:08.840Z,15.00
2022-09-07T20:51:16.057Z,14.90
2022-09-07T20:54:23.651Z,14.80
2022-09-07T20:57:28.045Z,14.90
2022-09-07T21:00:33.505Z,14.90
2022-09-07T21:03:38.791Z,14.90
2022-09-07T21:06:43.407Z,15.00
2022-09-07T21:09:47.818Z,15.00
2022-09-07T21:12:53.226Z,15.00
2022-09-07T21:16:02.366Z,15.00
2022-09-07T21:19:08.346Z,15.00
2022-09-07T21:22:12.658Z,15.10
2022-09-07T21:25:16.946Z,15.10
2022-09-07T21:28:22.357Z,15.10
2022-09-07T21:31:28.249Z,15.10
2022-09-07T21:34:32.723Z,15.10
2022-09-07T21:37:37.560Z,15.10
2022-09-07T21:40:41.877Z,15.10
2022-09-07T21:43:46.705Z,15.10
2022-09-07T21:46:51.689Z,15.10
2022-09-07T21:49:56.109Z,15.10
2022-09-07T21:53:00.575Z,15.00
2022-09-07T21:56:07.303Z,14.90
2022-09-07T21:59:11.541Z,14.80
2022-09-07T22:02:15.900Z,14.70
2022-09-07T22:05:20.495Z,14.60
2022-09-07T22:08:25.158Z,14.50
2022-09-07T22:11:30.319Z,14.50
2022-09-07T22:14:34.759Z,14.30
2022-09-07T22:17:42.232Z,14.30
2022-09-07T22:20:48.976Z,14.20
2022-09-07T22:23:56.834Z,14.20
2022-09-07T22:27:00.972Z,14.20
2022-09-07T22:30:06.909Z,14.20
2022-09-07T22:33:11.445Z,14.30
2022-09-07T22:36:17.690Z,14.30
2022-09-07T22:39:22.067Z,14.30
2022-09-07T22:42:26.408Z,14.30
2022-09-07T22:45:30.799Z,14.30
2022-09-07T22:48:35.449Z,14.30
2022-09-07T22:51:39.739Z,14.30
2022-09-07T22:54:44.518Z,14.20
2022-09-07T22:57:48.917Z,14.30
2022-09-07T23:00:53.165Z,14.20
2022-09-07T23:03:58.333Z,14.30
2022-09-07T23:07:02.647Z,14.30
2022-09-07T23:10:07.808Z,14.20
2022-09-07T23:13:16.793Z,14.30
2022-09-07T23:16:22.499Z,14.30
2022-09-07T23:19:27.634Z,14.30
2022-09-07T23:22:32.079Z,14.30
2022-09-07T23:25:41.132Z,14.20
2022-09-07T23:28:45.474Z,14.30
2022-09-07T23:31:49.862Z,14.30
2022-09-07T23:34:54.491Z,14.30
2022-09-07T23:37:59.322Z,14.20
2022-09-07T23:41:04.291Z,14.30
2022-09-07T23:44:08.671Z,14.30
2022-09-07T23:47:12.819Z,14.40
2022-09-07T23:50:17.839Z,14.20
2022-09-07T23:53:22.447Z,14.20
2022-09-07T23:56:26.612Z,14.20
2022-09-07T23:59:33.915Z,14.30
